createdAt,value
2019-03-30T00:00:49.946Z,98.3
2019-03-30T00:02:50.132Z,98.4
2019-03-30T00:04:49.837Z,98.2
2019-03-30T00:06:50.156Z,98.8
2019-03-30T00:08:50.347Z,99.1
2019-03-30T00:10:50.625Z,99.4
2019-03-30T00:12:49.849Z,99.5
2019-03-30T00:14:50.053Z,99.4
2019-03-30T00:16:50.626Z,99.3
2019-03-30T00:18:50.017Z,99.8
2019-03-30T00:20:50.279Z,100.0
2019-03-30T00:22:50.539Z,100.0
2019-03-30T00:24:50.721Z,100.0
2019-03-30T00:26:50.152Z,100.0
2019-03-30T00:28:50.292Z,100.0
2019-03-30T00:30:50.599Z,100.0
2019-03-30T00:32:49.885Z,100.0
2019-03-30T00:34:50.460Z,100.0
2019-03-30T00:36:49.942Z,100.0
2019-03-30T00:38:50.149Z,100.0
2019-03-30T00:40:50.383Z,100.0
2019-03-30T00:42:50.610Z,100.0
2019-03-30T00:44:49.937Z,100.0
2019-03-30T00:46:50.431Z,100.0
2019-03-30T00:48:50.667Z,100.0
2019-03-30T00:50:49.863Z,100.0
2019-03-30T00:52:50.108Z,100.0
2019-03-30T00:54:50.324Z,100.0
2019-03-30T00:56:50.661Z,100.0
2019-03-30T00:58:49.885Z,100.0
2019-03-30T01:00:50.098Z,100.0
2019-03-30T01:02:50.386Z,100.0
2019-03-30T01:04:49.999Z,100.0
2019-03-30T01:06:50.429Z,100.0
2019-03-30T01:08:50.552Z,100.0
2019-03-30T01:10:49.856Z,100.0
2019-03-30T01:12:50.128Z,100.0
2019-03-30T01:14:50.426Z,100.0
2019-03-30T01:16:49.845Z,100.0
2019-03-30T01:18:50.039Z,100.0
2019-03-30T01:20:50.228Z,100.0
2019-03-30T01:22:50.488Z,100.0
2019-03-30T01:24:50.669Z,100.0
2019-03-30T01:26:50.116Z,100.0
2019-03-30T01:28:50.293Z,100.0
2019-03-30T01:30:50.473Z,100.0
2019-03-30T01:32:50.744Z,100.0
2019-03-30T01:34:50.550Z,100.0
2019-03-30T01:36:49.873Z,100.0
2019-03-30T01:38:50.228Z,100.0
2019-03-30T01:40:50.475Z,100.0
2019-03-30T01:42:50.733Z,100.0
2019-03-30T01:44:49.965Z,100.0
2019-03-30T01:46:50.452Z,100.0
2019-03-30T01:48:50.675Z,100.0
2019-03-30T01:50:49.957Z,100.0
2019-03-30T01:52:50.289Z,100.0
2019-03-30T01:54:50.479Z,100.0
2019-03-30T01:56:49.901Z,100.0
2019-03-30T01:58:50.105Z,100.0
2019-03-30T02:00:50.291Z,100.0
2019-03-30T02:02:50.490Z,100.0
2019-03-30T02:04:50.328Z,100.0
2019-03-30T02:06:50.711Z,100.0
2019-03-30T02:08:49.913Z,100.0
2019-03-30T02:10:50.190Z,100.0
2019-03-30T02:12:50.798Z,100.0
2019-03-30T02:14:49.941Z,100.0
2019-03-30T02:16:50.397Z,100.0
2019-03-30T02:18:49.876Z,100.0
2019-03-30T02:20:50.312Z,100.0
2019-03-30T02:22:50.777Z,100.0
2019-03-30T02:24:50.117Z,100.0
2019-03-30T02:26:50.532Z,100.0
2019-03-30T02:28:49.812Z,100.0
2019-03-30T02:30:50.151Z,100.0
2019-03-30T02:32:50.413Z,100.0
2019-03-30T02:34:50.238Z,100.0
2019-03-30T02:36:50.796Z,100.0
2019-03-30T02:38:50.107Z,100.0
2019-03-30T02:40:50.603Z,100.0
2019-03-30T02:42:49.921Z,100.0
2019-03-30T02:44:50.291Z,100.0
2019-03-30T02:46:50.791Z,100.0
2019-03-30T02:48:49.982Z,100.0
2019-03-30T02:50:51.273Z,100.0
2019-03-30T02:52:50.599Z,100.0
2019-03-30T02:54:49.984Z,100.0
2019-03-30T02:56:50.544Z,100.0
2019-03-30T02:58:49.830Z,100.0
2019-03-30T03:00:50.125Z,100.0
2019-03-30T03:02:50.432Z,100.0
2019-03-30T03:04:50.055Z,100.0
2019-03-30T03:06:50.537Z,100.0
2019-03-30T03:08:50.095Z,100.0
2019-03-30T03:10:50.253Z,100.0
2019-03-30T03:12:50.547Z,100.0
2019-03-30T03:14:50.764Z,100.0
2019-03-30T03:16:50.181Z,100.0
2019-03-30T03:18:50.415Z,100.0
2019-03-30T03:21:09.304Z,100.0
2019-03-30T03:22:50.106Z,100.0
2019-03-30T03:24:50.415Z,100.0
2019-03-30T03:26:49.999Z,100.0
2019-03-30T03:28:50.325Z,100.0
2019-03-30T03:30:50.603Z,100.0
2019-03-30T03:32:50.067Z,100.0
2019-03-30T03:34:49.896Z,100.0
2019-03-30T03:36:50.379Z,100.0
2019-03-30T03:38:50.642Z,100.0
2019-03-30T03:40:49.935Z,100.0
2019-03-30T03:42:50.161Z,100.0
2019-03-30T03:44:50.488Z,100.0
2019-03-30T03:46:50.798Z,100.0
2019-03-30T03:48:50.002Z,100.0
2019-03-30T03:50:50.347Z,100.0
2019-03-30T03:52:50.501Z,100.0
2019-03-30T03:54:50.743Z,100.0
2019-03-30T03:56:50.258Z,100.0
2019-03-30T03:58:50.506Z,100.0
2019-03-30T04:00:50.763Z,100.0
2019-03-30T04:02:50.129Z,100.0
2019-03-30T04:04:49.822Z,100.0
2019-03-30T04:06:50.289Z,100.0
2019-03-30T04:08:50.551Z,100.0
2019-03-30T04:10:50.731Z,100.0
2019-03-30T04:12:49.953Z,100.0
2019-03-30T04:14:50.208Z,100.0
2019-03-30T04:16:50.699Z,100.0
2019-03-30T04:18:49.943Z,100.0
2019-03-30T04:20:50.316Z,100.0
2019-03-30T04:22:50.564Z,100.0
2019-03-30T04:24:50.902Z,100.0
2019-03-30T04:26:50.309Z,100.0
2019-03-30T04:28:50.681Z,100.0
2019-03-30T04:30:49.985Z,100.0
2019-03-30T04:32:50.442Z,100.0
2019-03-30T04:34:50.300Z,100.0
2019-03-30T04:36:49.989Z,100.0
2019-03-30T04:38:50.373Z,100.0
2019-03-30T04:40:50.745Z,100.0
2019-03-30T04:42:50.183Z,100.0
2019-03-30T04:44:50.498Z,100.0
2019-03-30T04:46:50.013Z,100.0
2019-03-30T04:48:50.376Z,100.0
2019-03-30T04:50:50.736Z,100.0
2019-03-30T04:52:50.120Z,100.0
2019-03-30T04:54:50.301Z,100.0
2019-03-30T04:56:50.623Z,100.0
2019-03-30T04:58:49.892Z,100.0
2019-03-30T05:00:50.118Z,100.0
2019-03-30T05:02:50.514Z,100.0
2019-03-30T05:04:50.284Z,100.0
2019-03-30T05:06:50.668Z,100.0
2019-03-30T05:08:49.946Z,100.0
2019-03-30T05:10:50.184Z,100.0
2019-03-30T05:12:50.501Z,100.0
2019-03-30T05:14:50.696Z,100.0
2019-03-30T05:16:50.148Z,100.0
2019-03-30T05:18:50.373Z,100.0
2019-03-30T05:20:50.585Z,100.0
2019-03-30T05:22:51.841Z,100.0
2019-03-30T05:24:50.052Z,100.0
2019-03-30T05:26:50.156Z,100.0
2019-03-30T05:28:50.434Z,100.0
2019-03-30T05:30:50.721Z,100.0
2019-03-30T05:32:49.871Z,100.0
2019-03-30T05:34:49.832Z,100.0
2019-03-30T05:36:50.363Z,100.0
2019-03-30T05:38:50.584Z,100.0
2019-03-30T05:40:49.969Z,100.0
2019-03-30T05:42:50.214Z,100.0
2019-03-30T05:44:50.404Z,100.0
2019-03-30T05:46:49.886Z,100.0
2019-03-30T05:48:50.144Z,100.0
2019-03-30T05:50:50.371Z,100.0
2019-03-30T05:52:50.618Z,100.0
2019-03-30T05:54:49.849Z,100.0
2019-03-30T05:56:50.279Z,100.0
2019-03-30T05:58:50.543Z,100.0
2019-03-30T06:00:49.864Z,100.0
2019-03-30T06:02:50.089Z,100.0
2019-03-30T06:04:50.772Z,100.0
2019-03-30T06:06:50.181Z,100.0
2019-03-30T06:08:50.407Z,100.0
2019-03-30T06:10:50.697Z,100.0
2019-03-30T06:12:49.996Z,100.0
2019-03-30T06:14:50.153Z,100.0
2019-03-30T06:16:50.584Z,99.7
2019-03-30T06:18:49.913Z,99.4
2019-03-30T06:20:50.256Z,99.4
2019-03-30T06:22:50.557Z,98.1
2019-03-30T06:24:49.849Z,97.8
2019-03-30T06:26:50.223Z,97.7
2019-03-30T06:28:50.478Z,97.3
2019-03-30T06:30:50.626Z,97.8
2019-03-30T06:32:49.838Z,96.9
2019-03-30T06:34:49.871Z,97.1
2019-03-30T06:36:49.924Z,96.6
2019-03-30T06:38:50.085Z,96.6
2019-03-30T06:40:50.296Z,75
2019-03-30T06:42:50.476Z,75
2019-03-30T06:44:49.829Z,75
2019-03-30T06:46:50.338Z,75
2019-03-30T06:48:50.544Z,76
2019-03-30T06:50:50.747Z,76
2019-03-30T06:52:59.309Z,76
2019-03-30T06:54:50.653Z,75
2019-03-30T06:56:50.195Z,75
2019-03-30T06:58:50.462Z,75
2019-03-30T07:00:50.633Z,76
2019-03-30T07:02:49.857Z,75
2019-03-30T07:04:50.720Z,75
2019-03-30T07:06:50.155Z,75
2019-03-30T07:08:50.388Z,75
2019-03-30T07:10:50.661Z,75
2019-03-30T07:12:49.953Z,75
2019-03-30T07:14:50.284Z,75
2019-03-30T07:16:50.651Z,75
2019-03-30T07:18:49.811Z,75
2019-03-30T07:20:50.218Z,75
2019-03-30T07:22:51.739Z,75
2019-03-30T07:24:49.902Z,75
2019-03-30T07:26:50.270Z,75
2019-03-30T07:28:50.473Z,75
2019-03-30T07:30:50.634Z,75
2019-03-30T07:32:49.881Z,75
2019-03-30T07:34:49.854Z,75
2019-03-30T07:36:50.402Z,75
2019-03-30T07:38:50.761Z,75
2019-03-30T07:40:50.049Z,75
2019-03-30T07:42:50.430Z,75
2019-03-30T07:44:49.822Z,75
2019-03-30T07:46:50.387Z,74
2019-03-30T07:48:50.625Z,74
2019-03-30T07:50:49.801Z,74
2019-03-30T07:52:50.191Z,74
2019-03-30T07:54:50.585Z,74
2019-03-30T07:57:17.686Z,74
2019-03-30T07:58:50.745Z,74
2019-03-30T08:00:50.101Z,73
2019-03-30T08:02:50.317Z,73
2019-03-30T08:04:50.051Z,73
2019-03-30T08:06:50.371Z,72
2019-03-30T08:08:50.596Z,73
2019-03-30T08:10:50.733Z,72
2019-03-30T08:12:50.076Z,72
2019-03-30T08:14:50.306Z,72
2019-03-30T08:16:50.658Z,72
2019-03-30T08:18:49.879Z,72
2019-03-30T08:20:50.039Z,71
2019-03-30T08:22:50.190Z,71
2019-03-30T08:24:50.488Z,69
2019-03-30T08:26:49.830Z,69
2019-03-30T08:28:50.036Z,69
2019-03-30T08:30:50.252Z,69
2019-03-30T08:32:50.458Z,69
2019-03-30T08:34:50.231Z,69
2019-03-30T08:36:50.537Z,69
2019-03-30T08:38:50.761Z,69
2019-03-30T08:40:49.942Z,68
2019-03-30T08:42:50.171Z,68
2019-03-30T08:44:50.481Z,68
2019-03-30T08:46:49.851Z,68
2019-03-30T08:48:50.182Z,67
2019-03-30T08:50:50.525Z,66
2019-03-30T08:52:50.780Z,66
2019-03-30T08:54:50.106Z,66
2019-03-30T08:56:50.591Z,66
2019-03-30T08:58:49.906Z,66
2019-03-30T09:00:50.155Z,66
2019-03-30T09:02:50.575Z,66
2019-03-30T09:04:50.451Z,66
2019-03-30T09:06:49.803Z,65
2019-03-30T09:08:50.051Z,65
2019-03-30T09:10:50.365Z,65
2019-03-30T09:12:50.611Z,65
2019-03-30T09:14:49.820Z,65
2019-03-30T09:16:50.191Z,64
2019-03-30T09:18:50.379Z,64
2019-03-30T09:20:50.641Z,64
2019-03-30T09:22:49.886Z,64
2019-03-30T09:24:50.077Z,64
2019-03-30T09:26:50.432Z,64
2019-03-30T09:28:50.645Z,64
2019-03-30T09:30:49.839Z,64
2019-03-30T09:32:50.058Z,64
2019-03-30T09:34:50.706Z,64
2019-03-30T09:36:50.987Z,64
2019-03-30T09:38:50.341Z,63
2019-03-30T09:40:50.595Z,63
2019-03-30T09:42:49.946Z,63
2019-03-30T09:44:50.238Z,63
2019-03-30T09:46:50.701Z,63
2019-03-30T09:48:49.998Z,62
2019-03-30T09:50:50.214Z,62
2019-03-30T09:52:50.408Z,62
2019-03-30T09:54:50.665Z,61
2019-03-30T09:56:50.045Z,62
2019-03-30T09:58:50.252Z,62
2019-03-30T10:00:50.487Z,62
2019-03-30T10:02:50.694Z,62
2019-03-30T10:04:50.468Z,61
2019-03-30T10:06:50.731Z,60
2019-03-30T10:08:50.052Z,60
2019-03-30T10:10:50.160Z,60
2019-03-30T10:12:50.513Z,59
2019-03-30T10:14:49.944Z,60
2019-03-30T10:16:50.288Z,60
2019-03-30T10:18:50.463Z,59
2019-03-30T10:20:50.648Z,59
2019-03-30T10:22:49.888Z,59
2019-03-30T10:24:50.202Z,59
2019-03-30T10:26:50.847Z,58
2019-03-30T10:28:50.085Z,58
2019-03-30T10:30:50.408Z,58
2019-03-30T10:32:50.616Z,58
2019-03-30T10:34:50.315Z,58
2019-03-30T10:36:50.638Z,58
2019-03-30T10:38:49.897Z,58
2019-03-30T10:40:50.144Z,58
2019-03-30T10:42:50.407Z,57
2019-03-30T10:44:50.703Z,57
2019-03-30T10:46:50.129Z,57
2019-03-30T10:48:50.388Z,57
2019-03-30T10:50:50.583Z,57
2019-03-30T10:52:50.743Z,56
2019-03-30T10:54:53.669Z,56
2019-03-30T10:56:50.018Z,56
2019-03-30T10:58:50.265Z,55
2019-03-30T11:00:50.505Z,55
2019-03-30T11:02:50.639Z,55
2019-03-30T11:04:50.464Z,55
2019-03-30T11:06:49.817Z,53
2019-03-30T11:08:50.060Z,53
2019-03-30T11:10:50.270Z,53
2019-03-30T11:12:50.482Z,54
2019-03-30T11:14:50.682Z,54
2019-03-30T11:16:50.074Z,54
2019-03-30T11:18:50.278Z,53
2019-03-30T11:20:50.490Z,54
2019-03-30T11:22:50.727Z,54
2019-03-30T11:24:49.907Z,54
2019-03-30T11:26:50.331Z,54
2019-03-30T11:28:50.649Z,54
2019-03-30T11:30:49.861Z,52
2019-03-30T11:32:50.117Z,53
2019-03-30T11:34:50.803Z,53
2019-03-30T11:36:50.197Z,53
2019-03-30T11:38:50.399Z,51
2019-03-30T11:40:50.529Z,51
2019-03-30T11:42:50.729Z,51
2019-03-30T11:44:50.054Z,51
2019-03-30T11:46:50.628Z,51
2019-03-30T11:48:49.980Z,51
2019-03-30T11:50:50.591Z,52
2019-03-30T11:52:50.048Z,52
2019-03-30T11:54:50.494Z,52
2019-03-30T11:56:50.151Z,51
2019-03-30T11:58:50.594Z,51
2019-03-30T12:00:50.110Z,51
2019-03-30T12:02:50.560Z,51
2019-03-30T12:04:50.602Z,51
2019-03-30T12:06:52.782Z,51
2019-03-30T12:08:50.222Z,51
2019-03-30T12:10:50.762Z,51
2019-03-30T12:12:50.336Z,50
2019-03-30T12:14:50.800Z,50
2019-03-30T12:16:50.368Z,50
2019-03-30T12:18:50.770Z,50
2019-03-30T12:20:50.365Z,50
2019-03-30T12:22:50.778Z,49
2019-03-30T12:24:50.254Z,49
2019-03-30T12:26:50.751Z,49
2019-03-30T12:28:50.161Z,48
2019-03-30T12:30:50.565Z,48
2019-03-30T12:32:50.012Z,48
2019-03-30T12:34:50.933Z,46
2019-03-30T12:36:50.662Z,46
2019-03-30T12:38:50.278Z,45
2019-03-30T12:40:50.783Z,45
2019-03-30T12:42:50.253Z,45
2019-03-30T12:44:50.664Z,46
2019-03-30T12:46:50.235Z,47
2019-03-30T12:48:50.855Z,46
2019-03-30T12:50:50.326Z,46
2019-03-30T12:52:50.761Z,46
2019-03-30T12:54:50.040Z,45
2019-03-30T12:56:50.386Z,44
2019-03-30T12:58:50.672Z,44
2019-03-30T13:00:49.834Z,46
2019-03-30T13:02:50.081Z,46
2019-03-30T13:04:49.884Z,45
2019-03-30T13:06:50.270Z,46
2019-03-30T13:08:50.554Z,46
2019-03-30T13:10:50.941Z,46
2019-03-30T13:12:50.361Z,45
2019-03-30T13:14:50.724Z,45
2019-03-30T13:16:50.235Z,45
2019-03-30T13:18:50.812Z,45
2019-03-30T13:20:50.264Z,42
2019-03-30T13:22:50.630Z,42
2019-03-30T13:24:50.907Z,43
2019-03-30T13:26:50.561Z,43
2019-03-30T13:28:50.889Z,44
2019-03-30T13:30:50.330Z,43
2019-03-30T13:32:54.155Z,43
2019-03-30T13:34:50.933Z,41
2019-03-30T13:36:50.714Z,41
2019-03-30T13:38:50.128Z,41
2019-03-30T13:40:50.584Z,42
2019-03-30T13:42:50.955Z,41
2019-03-30T13:44:50.346Z,41
2019-03-30T13:46:50.873Z,41
2019-03-30T13:48:50.285Z,42
2019-03-30T13:50:50.656Z,42
2019-03-30T13:52:50.058Z,42
2019-03-30T13:54:50.512Z,42
2019-03-30T13:56:50.131Z,42
2019-03-30T13:58:50.519Z,42
2019-03-30T14:00:50.886Z,41
2019-03-30T14:02:50.349Z,41
2019-03-30T14:04:53.137Z,41
2019-03-30T14:06:50.649Z,41
2019-03-30T14:08:50.133Z,41
2019-03-30T14:10:50.557Z,42
2019-03-30T14:12:49.956Z,41
2019-03-30T14:14:50.369Z,41
2019-03-30T14:16:50.048Z,39
2019-03-30T14:18:50.454Z,39
2019-03-30T14:20:50.849Z,39
2019-03-30T14:22:50.289Z,40
2019-03-30T14:24:50.726Z,40
2019-03-30T14:26:50.281Z,40
2019-03-30T14:28:50.654Z,40
2019-03-30T14:30:50.075Z,40
2019-03-30T14:32:50.464Z,40
2019-03-30T14:34:50.374Z,40
2019-03-30T14:36:50.938Z,40
2019-03-30T14:38:50.379Z,40
2019-03-30T14:40:50.851Z,40
2019-03-30T14:42:50.333Z,40
2019-03-30T14:44:50.689Z,40
2019-03-30T14:46:50.222Z,40
2019-03-30T14:48:50.659Z,41
2019-03-30T14:50:50.073Z,41
2019-03-30T14:52:50.418Z,41
2019-03-30T14:54:53.869Z,41
2019-03-30T14:56:50.362Z,41
2019-03-30T14:58:50.958Z,41
2019-03-30T15:00:50.540Z,41
2019-03-30T15:02:50.846Z,41
2019-03-30T15:04:50.945Z,41
2019-03-30T15:06:50.553Z,41
2019-03-30T15:08:49.982Z,41
2019-03-30T15:10:50.324Z,41
2019-03-30T15:12:50.718Z,41
2019-03-30T15:14:50.218Z,41
2019-03-30T15:16:50.723Z,41
2019-03-30T15:18:50.318Z,41
2019-03-30T15:20:50.674Z,41
2019-03-30T15:22:50.090Z,41
2019-03-30T15:24:50.542Z,39
2019-03-30T15:27:01.111Z,39
2019-03-30T15:28:50.529Z,39
2019-03-30T15:30:50.878Z,39
2019-03-30T15:32:50.281Z,40
2019-03-30T15:34:50.047Z,40
2019-03-30T15:36:50.518Z,40
2019-03-30T15:38:50.902Z,40
2019-03-30T15:40:50.350Z,40
2019-03-30T15:42:50.695Z,40
2019-03-30T15:44:50.043Z,40
2019-03-30T15:46:50.647Z,40
2019-03-30T15:48:50.054Z,41
2019-03-30T15:50:50.476Z,41
2019-03-30T15:52:50.821Z,40
2019-03-30T15:54:50.227Z,40
2019-03-30T15:56:50.895Z,40
2019-03-30T15:58:50.219Z,40
2019-03-30T16:00:50.459Z,40
2019-03-30T16:02:50.668Z,39
2019-03-30T16:04:50.592Z,40
2019-03-30T16:06:50.013Z,40
2019-03-30T16:08:50.250Z,40
2019-03-30T16:10:52.894Z,40
2019-03-30T16:12:50.303Z,40
2019-03-30T16:14:50.625Z,40
2019-03-30T16:16:50.007Z,40
2019-03-30T16:18:50.385Z,40
2019-03-30T16:20:50.547Z,40
2019-03-30T16:22:50.705Z,40
2019-03-30T16:24:50.021Z,40
2019-03-30T16:26:50.430Z,40
2019-03-30T16:28:50.590Z,40
2019-03-30T16:30:49.832Z,41
2019-03-30T16:32:50.139Z,41
2019-03-30T16:34:49.825Z,41
2019-03-30T16:36:50.275Z,41
2019-03-30T16:38:50.485Z,41
2019-03-30T16:40:50.638Z,41
2019-03-30T16:42:49.853Z,41
2019-03-30T16:44:50.078Z,41
2019-03-30T16:46:50.372Z,41
2019-03-30T16:48:50.624Z,41
2019-03-30T16:50:49.903Z,42
2019-03-30T16:52:50.234Z,42
2019-03-30T16:54:50.497Z,42
2019-03-30T16:56:49.948Z,41.7
2019-03-30T16:58:50.130Z,40.7
2019-03-30T17:00:57.576Z,41.0
2019-03-30T17:02:49.886Z,41.2
2019-03-30T17:04:50.794Z,43.1
2019-03-30T17:06:50.172Z,42.8
2019-03-30T17:08:50.397Z,47.2
2019-03-30T17:10:50.621Z,43.4
2019-03-30T17:12:49.833Z,45.3
2019-03-30T17:14:50.123Z,45.2
2019-03-30T17:16:50.410Z,45.0
2019-03-30T17:18:50.558Z,44.3
2019-03-30T17:20:50.740Z,47.4
2019-03-30T17:22:50.069Z,52.0
2019-03-30T17:24:50.247Z,48.6
2019-03-30T17:26:50.594Z,47.0
2019-03-30T17:28:49.869Z,52.7
2019-03-30T17:30:50.149Z,55.2
2019-03-30T17:32:50.468Z,56.6
2019-03-30T17:34:50.209Z,58.5
2019-03-30T17:36:50.570Z,56.4
2019-03-30T17:38:50.822Z,53.7
2019-03-30T17:40:50.075Z,54.7
2019-03-30T17:42:50.279Z,54.7
2019-03-30T17:44:50.466Z,56.7
2019-03-30T17:46:50.779Z,56.3
2019-03-30T17:48:50.022Z,59.5
2019-03-30T17:50:50.305Z,59.3
2019-03-30T17:52:50.541Z,61.7
2019-03-30T17:54:50.713Z,59.8
2019-03-30T17:56:50.242Z,62.2
2019-03-30T17:58:50.470Z,62.2
2019-03-30T18:00:50.655Z,60.2
2019-03-30T18:02:49.967Z,59.1
2019-03-30T18:04:49.835Z,59.4
2019-03-30T18:06:50.316Z,59.9
2019-03-30T18:08:50.506Z,60.2
2019-03-30T18:10:50.675Z,64.5
2019-03-30T18:12:49.911Z,65.3
2019-03-30T18:14:50.230Z,64.1
2019-03-30T18:16:50.648Z,65.0
2019-03-30T18:18:50.002Z,65.3
2019-03-30T18:20:50.287Z,65.4
2019-03-30T18:22:50.447Z,64.3
2019-03-30T18:24:50.613Z,63.9
2019-03-30T18:26:50.034Z,63.4
2019-03-30T18:28:50.337Z,64.4
2019-03-30T18:30:50.624Z,64.5
2019-03-30T18:32:53.877Z,64.8
2019-03-30T18:34:49.928Z,65.2
2019-03-30T18:36:50.492Z,66.7
2019-03-30T18:38:50.714Z,68.5
2019-03-30T18:40:49.953Z,70.9
2019-03-30T18:42:50.251Z,71.7
2019-03-30T18:44:50.535Z,72.9
2019-03-30T18:46:49.968Z,73.3
2019-03-30T18:48:50.221Z,72.7
2019-03-30T18:50:50.484Z,73.2
2019-03-30T18:52:50.639Z,74.3
2019-03-30T18:54:49.796Z,73.1
2019-03-30T18:56:50.238Z,72.0
2019-03-30T18:58:50.501Z,70.2
2019-03-30T19:00:50.727Z,70.4
2019-03-30T19:02:50.069Z,70.6
2019-03-30T19:04:50.772Z,70.6
2019-03-30T19:06:50.197Z,72.2
2019-03-30T19:08:50.472Z,72.7
2019-03-30T19:10:50.688Z,73.7
2019-03-30T19:12:49.992Z,72.7
2019-03-30T19:14:50.325Z,78.2
2019-03-30T19:16:50.764Z,80.6
2019-03-30T19:18:50.055Z,76.9
2019-03-30T19:20:50.260Z,76.4
2019-03-30T19:22:50.473Z,76.8
2019-03-30T19:24:50.722Z,78.1
2019-03-30T19:26:50.080Z,78.5
2019-03-30T19:28:57.252Z,77.8
2019-03-30T19:30:50.445Z,80.5
2019-03-30T19:32:50.610Z,79.8
2019-03-30T19:34:50.311Z,77.0
2019-03-30T19:36:50.677Z,76.4
2019-03-30T19:38:49.971Z,75.3
2019-03-30T19:40:50.164Z,74.8
2019-03-30T19:42:50.333Z,74.4
2019-03-30T19:44:50.535Z,74.6
2019-03-30T19:46:50.105Z,76.8
2019-03-30T19:48:50.363Z,78.3
2019-03-30T19:50:50.543Z,75.5
2019-03-30T19:52:50.706Z,75.3
2019-03-30T19:54:49.987Z,76.3
2019-03-30T19:56:50.422Z,75.0
2019-03-30T19:58:50.605Z,75.0
2019-03-30T20:00:50.107Z,76.1
2019-03-30T20:02:50.440Z,75.9
2019-03-30T20:04:50.206Z,76.1
2019-03-30T20:06:50.545Z,76.0
2019-03-30T20:08:49.788Z,77.5
2019-03-30T20:10:50.055Z,77.9
2019-03-30T20:12:50.258Z,77.5
2019-03-30T20:14:50.477Z,78.1
2019-03-30T20:16:49.833Z,78.0
2019-03-30T20:18:50.036Z,79.4
2019-03-30T20:20:50.334Z,80.2
2019-03-30T20:22:50.539Z,80.5
2019-03-30T20:24:49.832Z,80.3
2019-03-30T20:26:50.202Z,80.7
2019-03-30T20:28:50.476Z,80.3
2019-03-30T20:30:50.757Z,80.0
2019-03-30T20:32:50.005Z,80.2
2019-03-30T20:34:50.615Z,78.9
2019-03-30T20:36:50.047Z,80.8
2019-03-30T20:38:50.295Z,80.5
2019-03-30T20:40:50.528Z,80.5
2019-03-30T20:42:50.663Z,80.6
2019-03-30T20:44:49.817Z,80.9
2019-03-30T20:46:50.176Z,80.9
2019-03-30T20:48:50.388Z,81.7
2019-03-30T20:50:50.601Z,84.6
2019-03-30T20:52:49.850Z,83.1
2019-03-30T20:54:50.166Z,82.1
2019-03-30T20:56:50.521Z,81.1
2019-03-30T20:58:50.684Z,81.7
2019-03-30T21:00:49.919Z,82.1
2019-03-30T21:02:50.283Z,82.6
2019-03-30T21:04:49.944Z,84.5
2019-03-30T21:06:50.344Z,84.1
2019-03-30T21:08:50.498Z,83.6
2019-03-30T21:10:50.650Z,84.7
2019-03-30T21:12:49.889Z,84.8
2019-03-30T21:14:50.024Z,83.9
2019-03-30T21:16:50.447Z,83.7
2019-03-30T21:18:50.721Z,83.6
2019-03-30T21:20:49.911Z,84.6
2019-03-30T21:22:50.242Z,84.5
2019-03-30T21:24:50.541Z,84.1
2019-03-30T21:26:50.015Z,84.0
2019-03-30T21:28:50.236Z,85.8
2019-03-30T21:30:50.490Z,84.6
2019-03-30T21:32:50.685Z,84.7
2019-03-30T21:34:50.410Z,84.8
2019-03-30T21:36:50.823Z,84.8
2019-03-30T21:38:50.139Z,85.9
2019-03-30T21:40:50.290Z,85.2
2019-03-30T21:42:50.545Z,85.3
2019-03-30T21:44:50.772Z,86.1
2019-03-30T21:46:50.231Z,86.1
2019-03-30T21:48:50.441Z,85.2
2019-03-30T21:50:50.625Z,86.2
2019-03-30T21:52:49.781Z,86.9
2019-03-30T21:54:49.945Z,86.7
2019-03-30T21:56:50.406Z,86.7
2019-03-30T21:58:50.555Z,87.0
2019-03-30T22:00:49.876Z,86.8
2019-03-30T22:02:50.122Z,86.7
2019-03-30T22:04:49.817Z,87.5
2019-03-30T22:06:50.180Z,86.9
2019-03-30T22:08:50.444Z,87.1
2019-03-30T22:10:50.707Z,86.0
2019-03-30T22:12:50.066Z,87.0
2019-03-30T22:14:50.297Z,86.4
2019-03-30T22:16:50.635Z,86.5
2019-03-30T22:18:49.846Z,88.5
2019-03-30T22:20:49.997Z,88.3
2019-03-30T22:22:50.294Z,88.8
2019-03-30T22:24:50.591Z,88.7
2019-03-30T22:26:50.001Z,89.0
2019-03-30T22:28:50.273Z,89.0
2019-03-30T22:30:50.494Z,88.6
2019-03-30T22:32:50.707Z,88.2
2019-03-30T22:34:50.601Z,89.3
2019-03-30T22:36:49.964Z,89.3
2019-03-30T22:38:50.204Z,89.1
2019-03-30T22:40:50.472Z,88.6
2019-03-30T22:42:50.650Z,88.3
2019-03-30T22:44:49.879Z,88.7
2019-03-30T22:46:50.422Z,90.3
2019-03-30T22:48:50.653Z,91.5
2019-03-30T22:50:49.857Z,90.0
2019-03-30T22:52:50.146Z,90.6
2019-03-30T22:54:50.373Z,90.8
2019-03-30T22:56:49.820Z,90.9
2019-03-30T22:58:50.051Z,91.8
2019-03-30T23:00:50.337Z,91.7
2019-03-30T23:02:50.678Z,90.9
2019-03-30T23:04:50.521Z,91.4
2019-03-30T23:06:49.905Z,91.2
2019-03-30T23:08:50.137Z,90.4
2019-03-30T23:10:50.393Z,90.8
2019-03-30T23:12:50.599Z,90.8
2019-03-30T23:14:50.757Z,90.9
2019-03-30T23:16:50.137Z,91.7
2019-03-30T23:18:50.469Z,91.4
2019-03-30T23:20:50.669Z,91.1
2019-03-30T23:22:49.882Z,90.8
2019-03-30T23:24:50.186Z,92.6
2019-03-30T23:26:50.557Z,92.3
2019-03-30T23:28:50.755Z,92.3
2019-03-30T23:30:55.296Z,92.1
2019-03-30T23:32:50.474Z,92.7
2019-03-30T23:34:50.264Z,93.0
2019-03-30T23:36:50.707Z,92.5
2019-03-30T23:38:49.909Z,92.3
2019-03-30T23:40:50.106Z,93.7
2019-03-30T23:42:50.383Z,92.6
2019-03-30T23:44:50.629Z,93.3
2019-03-30T23:46:50.124Z,92.2
2019-03-30T23:48:50.295Z,93.7
2019-03-30T23:50:50.547Z,93.7
2019-03-30T23:52:50.762Z,93.1
2019-03-30T23:54:49.932Z,93.6
2019-03-30T23:56:50.360Z,93.4
2019-03-30T23:58:50.491Z,93.4
